Time;durP1;ratioP1;P1;durP2;ratioP2;P2;SDS_P1;SDS_P2;PMS_P1;PMS_P2;Temp;Humidity;BMP_temperature;BMP_pressure;BME280_temperature;BME280_humidity;BME280_pressure;Samples;Min_cycle;Max_cycle;Signal;HPM_P1;HPM_P2
2022/05/27 00:00:44;;;;;;;5.43;1.30;;;;;;;;;;4943806;28;20229;-62
2022/05/27 00:03:11;;;;;;;6.23;1.43;;;;;;;;;;4941902;28;20236;-62
2022/05/27 00:05:38;;;;;;;3.90;1.20;;;;;;;;;;4943825;28;20584;-62
2022/05/27 00:08:05;;;;;;;5.30;1.17;;;;;;;;;;4941541;28;20226;-62
2022/05/27 00:10:32;;;;;;;7.90;1.00;;;;;;;;;;4943820;28;20582;-63
2022/05/27 00:12:58;;;;;;;5.93;1.27;;;;;;;;;;4945696;28;20237;-62
2022/05/27 00:15:25;;;;;;;3.93;1.10;;;;;;;;;;4962837;28;20236;-62
2022/05/27 00:17:51;;;;;;;4.13;1.17;;;;;;;;;;4961098;28;20687;-62
2022/05/27 00:20:18;;;;;;;5.77;1.27;;;;;;;;;;4962934;28;20231;-62
2022/05/27 00:22:45;;;;;;;4.13;1.00;;;;;;;;;;4961056;28;20224;-62
2022/05/27 00:25:12;;;;;;;4.23;1.27;;;;;;;;;;4963073;28;20703;-62
2022/05/27 00:27:38;;;;;;;4.30;1.53;;;;;;;;;;4957623;28;20225;-62
2022/05/27 00:30:08;;;;;;;6.80;1.13;;;;;;;;;;4943529;28;20229;-62
2022/05/27 00:32:38;;;;;;;5.47;1.30;;;;;;;;;;4941963;28;20256;-62
2022/05/27 00:35:05;;;;;;;5.60;1.23;;;;;;;;;;4928534;28;20324;-62
2022/05/27 00:37:32;;;;;;;7.03;1.10;;;;;;;;;;4942161;28;20708;-62
2022/05/27 00:39:58;;;;;;;5.17;1.30;;;;;;;;;;4943107;28;20241;-62
2022/05/27 00:42:25;;;;;;;4.30;1.43;;;;;;;;;;4941678;28;20565;-62
2022/05/27 00:44:51;;;;;;;6.03;1.30;;;;;;;;;;4944154;28;20229;-62
2022/05/27 00:47:19;;;;;;;4.83;1.50;;;;;;;;;;4960820;28;20241;-61
2022/05/27 00:49:46;;;;;;;5.07;1.23;;;;;;;;;;4945732;28;20241;-62
2022/05/27 00:52:14;;;;;;;2.97;1.00;;;;;;;;;;4944245;28;20236;-62
2022/05/27 00:54:41;;;;;;;4.83;1.40;;;;;;;;;;4945478;28;20232;-61
2022/05/27 00:57:10;;;;;;;5.77;1.10;;;;;;;;;;4930326;28;20225;-62
2022/05/27 00:59:42;;;;;;;3.37;1.10;;;;;;;;;;4952979;28;20591;-62
2022/05/27 01:02:08;;;;;;;8.00;1.27;;;;;;;;;;4928203;28;20735;-62
2022/05/27 01:04:35;;;;;;;4.43;1.00;;;;;;;;;;4934656;28;20236;-62
2022/05/27 01:07:02;;;;;;;4.93;1.30;;;;;;;;;;4924323;28;20360;-62
2022/05/27 01:09:29;;;;;;;3.30;1.10;;;;;;;;;;4949707;28;20595;-62
2022/05/27 01:12:00;;;;;;;3.67;0.90;;;;;;;;;;4960790;28;20240;-64
2022/05/27 01:14:57;;;;;;;5.03;1.10;;;;;;;;;;4976112;28;20230;-62
2022/05/27 01:17:28;;;;;;;4.20;0.90;;;;;;;;;;4979478;28;20266;-62
2022/05/27 01:20:19;;;;;;;4.77;1.20;;;;;;;;;;4978736;28;20707;-62
2022/05/27 01:22:45;;;;;;;7.37;1.20;;;;;;;;;;4972868;28;215166;-62
2022/05/27 01:25:46;;;;;;;3.70;1.13;;;;;;;;;;4967646;28;20236;-62
2022/05/27 01:28:24;;;;;;;4.07;1.07;;;;;;;;;;4961916;28;20245;-62
2022/05/27 01:30:57;;;;;;;6.30;1.17;;;;;;;;;;4959221;28;20232;-62
2022/05/27 01:33:27;;;;;;;4.03;1.10;;;;;;;;;;4960821;28;20724;-62
2022/05/27 01:36:12;;;;;;;3.73;1.40;;;;;;;;;;4959117;28;20240;-62
2022/05/27 01:38:39;;;;;;;7.33;1.20;;;;;;;;;;4961142;28;20599;-62
2022/05/27 01:41:06;;;;;;;6.93;1.00;;;;;;;;;;4960224;28;20228;-62
2022/05/27 01:43:36;;;;;;;6.00;1.20;;;;;;;;;;4962681;28;20239;-62
2022/05/27 01:46:08;;;;;;;3.67;1.10;;;;;;;;;;4960384;28;20291;-62
2022/05/27 01:48:51;;;;;;;3.77;1.07;;;;;;;;;;4961000;28;20315;-62
2022/05/27 01:51:21;;;;;;;3.90;1.10;;;;;;;;;;4960616;28;20240;-62
2022/05/27 01:53:47;;;;;;;3.53;0.90;;;;;;;;;;4964410;28;20599;-62
2022/05/27 01:56:17;;;;;;;6.57;1.40;;;;;;;;;;4966088;28;20243;-62
2022/05/27 01:58:44;;;;;;;4.93;1.13;;;;;;;;;;4964522;28;20232;-62
2022/05/27 02:01:14;;;;;;;2.63;1.10;;;;;;;;;;4962762;28;20240;-64
2022/05/27 02:03:48;;;;;;;9.63;1.50;;;;;;;;;;4964354;28;20247;-62
2022/05/27 02:06:16;;;;;;;4.30;1.17;;;;;;;;;;4963088;28;20228;-62
2022/05/27 02:08:43;;;;;;;5.13;1.33;;;;;;;;;;4962241;28;20227;-63
2022/05/27 02:11:16;;;;;;;4.20;1.37;;;;;;;;;;4966217;28;20232;-62
2022/05/27 02:13:46;;;;;;;7.37;1.87;;;;;;;;;;4974014;28;20232;-62
2022/05/27 02:16:14;;;;;;;5.00;1.40;;;;;;;;;;4983689;28;20226;-62
2022/05/27 02:19:00;;;;;;;7.63;1.50;;;;;;;;;;4978660;28;20243;-62
2022/05/27 02:21:29;;;;;;;4.97;1.33;;;;;;;;;;4970184;28;20333;-62
2022/05/27 02:24:06;;;;;;;6.17;1.87;;;;;;;;;;4965864;28;20232;-63
2022/05/27 02:26:36;;;;;;;4.57;1.60;;;;;;;;;;4965081;28;20236;-62
2022/05/27 02:29:08;;;;;;;5.60;1.80;;;;;;;;;;4962138;28;20228;-62
2022/05/27 02:31:35;;;;;;;4.60;1.60;;;;;;;;;;4961783;28;20699;-62
2022/05/27 02:36:51;;;;;;;2.40;1.20;;;;;;;;;;4961268;28;20699;-62
2022/05/27 02:39:18;;;;;;;8.27;1.13;;;;;;;;;;4963455;28;20232;-63
2022/05/27 02:41:47;;;;;;;4.23;1.43;;;;;;;;;;4963170;28;20587;-62
2022/05/27 02:44:21;;;;;;;6.03;1.57;;;;;;;;;;4963272;28;20232;-62
2022/05/27 02:46:54;;;;;;;3.10;1.10;;;;;;;;;;4962000;28;20239;-62
2022/05/27 02:49:27;;;;;;;4.27;1.30;;;;;;;;;;4961729;28;20299;-62
2022/05/27 02:52:09;;;;;;;2.90;1.00;;;;;;;;;;4963342;28;20278;-62
2022/05/27 02:54:39;;;;;;;5.07;1.30;;;;;;;;;;4963515;28;20236;-62
2022/05/27 02:57:19;;;;;;;3.33;1.00;;;;;;;;;;4960964;28;20231;-62
2022/05/27 03:00:06;;;;;;;3.37;1.20;;;;;;;;;;4960972;28;20239;-62
2022/05/27 03:02:33;;;;;;;2.27;0.97;;;;;;;;;;4962732;28;20228;-63
2022/05/27 03:05:00;;;;;;;7.43;1.10;;;;;;;;;;4964848;28;20241;-62
2022/05/27 03:07:46;;;;;;;2.57;0.93;;;;;;;;;;4962700;28;20236;-62
2022/05/27 03:10:21;;;;;;;4.60;1.27;;;;;;;;;;4963291;28;20241;-62
2022/05/27 03:13:11;;;;;;;5.70;1.50;;;;;;;;;;4964137;28;20235;-62
2022/05/27 03:15:50;;;;;;;6.90;1.47;;;;;;;;;;4981007;28;21032;-62
2022/05/27 03:18:23;;;;;;;6.57;1.10;;;;;;;;;;4981991;28;20333;-62
2022/05/27 03:20:51;;;;;;;7.63;1.00;;;;;;;;;;4981781;28;21058;-54
2022/05/27 03:23:37;;;;;;;2.30;1.00;;;;;;;;;;4982720;28;20235;-51
2022/05/27 03:26:07;;;;;;;4.27;1.17;;;;;;;;;;4980878;28;20235;-62
2022/05/27 03:28:53;;;;;;;2.23;1.07;;;;;;;;;;4970853;28;20260;-62
2022/05/27 03:31:23;;;;;;;6.90;1.80;;;;;;;;;;4964973;28;20331;-63
2022/05/27 03:33:56;;;;;;;4.57;1.70;;;;;;;;;;4979270;28;20971;-63
2022/05/27 03:36:27;;;;;;;4.13;1.73;;;;;;;;;;4983230;28;20791;-63
2022/05/27 03:39:06;;;;;;;2.00;0.83;;;;;;;;;;4959521;28;20220;-62
2022/05/27 03:41:37;;;;;;;4.50;1.20;;;;;;;;;;4980602;28;20223;-62
2022/05/27 03:44:04;;;;;;;3.63;1.27;;;;;;;;;;4959660;28;20228;-62
2022/05/27 03:46:36;;;;;;;4.67;1.47;;;;;;;;;;4965979;28;20216;-62
2022/05/27 03:49:03;;;;;;;1.47;0.87;;;;;;;;;;4984542;28;20255;-62
2022/05/27 03:51:31;;;;;;;1.57;0.80;;;;;;;;;;4983504;28;20234;-62
2022/05/27 03:54:03;;;;;;;2.43;1.00;;;;;;;;;;4961451;28;20239;-62
2022/05/27 03:56:37;;;;;;;3.40;1.00;;;;;;;;;;4982750;28;20277;-62
2022/05/27 03:59:04;;;;;;;3.57;1.10;;;;;;;;;;4989438;28;20238;-62
2022/05/27 04:01:31;;;;;;;4.23;0.90;;;;;;;;;;4981989;28;20231;-64
2022/05/27 04:03:58;;;;;;;3.03;1.00;;;;;;;;;;4980202;28;24928;-62
2022/05/27 04:06:25;;;;;;;6.10;1.40;;;;;;;;;;4985549;28;20710;-62
2022/05/27 04:08:52;;;;;;;3.40;0.97;;;;;;;;;;4966018;28;20240;-63
2022/05/27 04:11:19;;;;;;;2.63;1.10;;;;;;;;;;4973065;28;20243;-62
2022/05/27 04:13:46;;;;;;;2.57;1.00;;;;;;;;;;4970232;28;20938;-62
2022/05/27 04:16:13;;;;;;;4.60;1.30;;;;;;;;;;4971499;28;23879;-62
2022/05/27 04:18:40;;;;;;;3.93;0.90;;;;;;;;;;4952869;28;20233;-63
2022/05/27 04:21:06;;;;;;;2.13;1.10;;;;;;;;;;4971242;28;20255;-62
2022/05/27 04:23:33;;;;;;;1.53;0.87;;;;;;;;;;4971408;28;20315;-62
2022/05/27 04:26:00;;;;;;;1.13;0.70;;;;;;;;;;4973007;28;20239;-64
2022/05/27 04:28:26;;;;;;;4.07;0.90;;;;;;;;;;4955487;28;20259;-62
2022/05/27 04:30:53;;;;;;;6.33;1.10;;;;;;;;;;4972460;28;20244;-62
2022/05/27 04:33:21;;;;;;;2.90;1.00;;;;;;;;;;4972004;28;20285;-61
2022/05/27 04:35:47;;;;;;;2.27;0.80;;;;;;;;;;4968812;28;20738;-61
2022/05/27 04:38:14;;;;;;;3.63;0.80;;;;;;;;;;4973099;28;20303;-61
2022/05/27 04:40:41;;;;;;;2.37;0.80;;;;;;;;;;4971124;28;20227;-62
2022/05/27 04:43:08;;;;;;;3.70;1.10;;;;;;;;;;4933225;28;36716;-61
2022/05/27 04:45:34;;;;;;;1.80;1.10;;;;;;;;;;4941411;28;20304;-61
2022/05/27 04:48:01;;;;;;;1.50;0.90;;;;;;;;;;4909076;28;20256;-62
2022/05/27 04:50:28;;;;;;;2.40;1.20;;;;;;;;;;4958789;28;55050;-62
2022/05/27 04:52:55;;;;;;;3.13;1.40;;;;;;;;;;4945760;28;20251;-62
2022/05/27 04:55:22;;;;;;;3.10;1.70;;;;;;;;;;4943308;28;20240;-62
2022/05/27 04:57:50;;;;;;;4.73;1.60;;;;;;;;;;4940547;28;20225;-62
2022/05/27 05:00:17;;;;;;;3.03;1.33;;;;;;;;;;4943044;28;20229;-62
2022/05/27 05:02:44;;;;;;;3.73;1.57;;;;;;;;;;4927752;28;20701;-62
2022/05/27 05:05:11;;;;;;;2.50;1.47;;;;;;;;;;4923820;28;20256;-62
2022/05/27 05:07:40;;;;;;;3.80;1.67;;;;;;;;;;4924814;28;20238;-62
2022/05/27 05:10:08;;;;;;;4.27;1.70;;;;;;;;;;4948491;28;20241;-62
2022/05/27 05:12:35;;;;;;;3.30;1.50;;;;;;;;;;4950878;28;20279;-61
2022/05/27 05:15:02;;;;;;;5.17;1.80;;;;;;;;;;4967849;28;20240;-62
2022/05/27 05:17:28;;;;;;;5.67;2.07;;;;;;;;;;4972966;28;20228;-61
2022/05/27 05:19:56;;;;;;;5.17;2.37;;;;;;;;;;4979204;28;20726;-62
2022/05/27 05:22:25;;;;;;;3.67;2.17;;;;;;;;;;4980480;28;20223;-62
2022/05/27 05:24:54;;;;;;;3.80;1.70;;;;;;;;;;4981837;28;20239;-62
2022/05/27 05:27:23;;;;;;;4.50;1.53;;;;;;;;;;4982997;28;20234;-61
2022/05/27 05:29:53;;;;;;;4.60;1.40;;;;;;;;;;4965519;28;20687;-62
2022/05/27 05:32:20;;;;;;;2.60;1.30;;;;;;;;;;4975438;28;20236;-61
2022/05/27 05:34:52;;;;;;;4.93;1.57;;;;;;;;;;4967668;28;20244;-62
2022/05/27 05:37:20;;;;;;;2.47;1.40;;;;;;;;;;4966824;28;20650;-60
2022/05/27 05:39:47;;;;;;;2.90;1.47;;;;;;;;;;4979185;28;20255;-62
2022/05/27 05:42:13;;;;;;;2.10;1.10;;;;;;;;;;4966336;28;20311;-61
2022/05/27 05:44:40;;;;;;;3.17;1.00;;;;;;;;;;4963929;28;20224;-61
2022/05/27 05:47:07;;;;;;;2.27;1.17;;;;;;;;;;4966545;28;20220;-61
2022/05/27 05:49:34;;;;;;;3.20;1.17;;;;;;;;;;4963355;28;20232;-62
2022/05/27 05:52:00;;;;;;;2.70;1.30;;;;;;;;;;4964857;28;20240;-61
2022/05/27 05:54:27;;;;;;;2.07;1.40;;;;;;;;;;4966358;28;20231;-62
2022/05/27 05:56:54;;;;;;;5.53;1.50;;;;;;;;;;4989871;28;20255;-62
2022/05/27 05:59:22;;;;;;;2.57;1.03;;;;;;;;;;4976772;28;20331;-62
2022/05/27 06:01:49;;;;;;;3.63;1.20;;;;;;;;;;4983011;28;20228;-62
2022/05/27 06:04:16;;;;;;;2.27;1.00;;;;;;;;;;4980661;28;20250;-62
2022/05/27 06:06:42;;;;;;;3.17;1.30;;;;;;;;;;4973325;28;20232;-62
2022/05/27 06:09:09;;;;;;;1.50;1.00;;;;;;;;;;4966164;28;20236;-62
2022/05/27 06:11:38;;;;;;;1.47;1.10;;;;;;;;;;4963720;28;20796;-61
2022/05/27 06:14:05;;;;;;;1.43;0.97;;;;;;;;;;4958164;28;21016;-62
2022/05/27 06:16:49;;;;;;;3.30;0.90;;;;;;;;;;4975058;28;20228;-62
2022/05/27 06:19:16;;;;;;;2.67;1.10;;;;;;;;;;4973945;28;20255;-61
2022/05/27 06:21:43;;;;;;;3.93;1.00;;;;;;;;;;4977649;28;20322;-62
2022/05/27 06:24:10;;;;;;;1.77;1.00;;;;;;;;;;4979884;28;21071;-62
2022/05/27 06:26:40;;;;;;;1.60;0.97;;;;;;;;;;4984771;28;20315;-61
2022/05/27 06:34:37;;;;;;;0.93;0.60;;;;;;;;;;4962544;28;20587;-62
2022/05/27 06:37:04;;;;;;;1.83;0.80;;;;;;;;;;4964868;28;20229;-61
2022/05/27 06:39:32;;;;;;;1.53;0.60;;;;;;;;;;4961943;28;20256;-62
2022/05/27 06:42:05;;;;;;;1.93;0.80;;;;;;;;;;4961013;28;20228;-62
2022/05/27 06:44:54;;;;;;;1.97;0.60;;;;;;;;;;4960799;28;20232;-62
2022/05/27 06:47:21;;;;;;;1.87;0.60;;;;;;;;;;4964429;28;20244;-62
2022/05/27 06:49:48;;;;;;;2.43;0.40;;;;;;;;;;4961709;28;20627;-62
2022/05/27 06:52:15;;;;;;;1.83;0.67;;;;;;;;;;4956762;28;215488;-62
2022/05/27 06:54:42;;;;;;;0.80;0.50;;;;;;;;;;4961464;28;20315;-61
2022/05/27 06:57:09;;;;;;;0.70;0.50;;;;;;;;;;4947578;28;20231;-62
2022/05/27 06:59:36;;;;;;;2.17;0.50;;;;;;;;;;4962359;28;20239;-63
2022/05/27 07:02:03;;;;;;;0.43;0.40;;;;;;;;;;4948673;28;20324;-62
2022/05/27 07:04:47;;;;;;;0.47;0.40;;;;;;;;;;4963606;28;20255;-62
2022/05/27 07:07:14;;;;;;;0.60;0.50;;;;;;;;;;4965596;28;20228;-62
2022/05/27 07:09:41;;;;;;;0.63;0.47;;;;;;;;;;4961978;28;20234;-62
2022/05/27 07:12:08;;;;;;;1.70;0.50;;;;;;;;;;4964435;28;20229;-61
2022/05/27 07:14:39;;;;;;;0.87;0.40;;;;;;;;;;4979644;28;20240;-61
2022/05/27 07:17:06;;;;;;;1.03;0.40;;;;;;;;;;4980567;28;20334;-62
2022/05/27 07:19:37;;;;;;;0.70;0.47;;;;;;;;;;4982478;28;20239;-62
2022/05/27 07:22:07;;;;;;;1.10;0.53;;;;;;;;;;4983580;28;20690;-62
2022/05/27 07:24:34;;;;;;;1.30;0.70;;;;;;;;;;4982058;28;20230;-62
2022/05/27 07:27:01;;;;;;;0.73;0.60;;;;;;;;;;4983443;28;20228;-62
2022/05/27 07:29:27;;;;;;;2.07;0.80;;;;;;;;;;4982106;28;20310;-62
2022/05/27 07:31:54;;;;;;;1.83;0.60;;;;;;;;;;4983419;28;20897;-62
2022/05/27 07:34:21;;;;;;;1.47;0.70;;;;;;;;;;4963373;28;20292;-62
2022/05/27 07:36:47;;;;;;;1.37;0.87;;;;;;;;;;4964389;28;20700;-62
2022/05/27 07:39:14;;;;;;;1.23;0.70;;;;;;;;;;4962167;28;20220;-62
2022/05/27 07:41:41;;;;;;;2.00;0.97;;;;;;;;;;4964225;28;20602;-62
2022/05/27 07:44:08;;;;;;;3.30;0.90;;;;;;;;;;4961970;28;20216;-62
2022/05/27 07:46:35;;;;;;;2.03;1.07;;;;;;;;;;4976175;28;20726;-62
2022/05/27 07:49:04;;;;;;;2.60;1.10;;;;;;;;;;4985064;28;21048;-63
2022/05/27 07:51:54;;;;;;;2.37;1.30;;;;;;;;;;4995530;28;20232;-62
2022/05/27 07:54:40;;;;;;;2.43;0.80;;;;;;;;;;4977709;28;20255;-62
2022/05/27 07:57:25;;;;;;;3.73;0.97;;;;;;;;;;4961291;28;20691;-62
2022/05/27 07:59:52;;;;;;;3.40;1.33;;;;;;;;;;4995625;28;30027;-62
2022/05/27 08:02:19;;;;;;;3.37;0.93;;;;;;;;;;4982690;28;20290;-62
2022/05/27 08:04:46;;;;;;;2.67;1.13;;;;;;;;;;4996095;28;20224;-62
2022/05/27 08:07:12;;;;;;;4.60;1.63;;;;;;;;;;4982165;28;20227;-62
2022/05/27 08:09:39;;;;;;;1.83;1.00;;;;;;;;;;4973055;28;20256;-62
2022/05/27 08:12:06;;;;;;;5.10;1.43;;;;;;;;;;4962947;28;20366;-62
2022/05/27 08:14:33;;;;;;;3.33;1.23;;;;;;;;;;4960796;28;20800;-62
2022/05/27 08:17:00;;;;;;;5.23;1.20;;;;;;;;;;4963014;28;21125;-62
2022/05/27 08:19:27;;;;;;;3.27;1.10;;;;;;;;;;4943655;28;20239;-62
2022/05/27 08:21:54;;;;;;;4.53;1.10;;;;;;;;;;4963108;28;20245;-62
2022/05/27 08:24:21;;;;;;;3.97;1.20;;;;;;;;;;4960751;28;20232;-63
2022/05/27 08:26:48;;;;;;;2.43;1.00;;;;;;;;;;4963025;28;20233;-62
2022/05/27 08:29:16;;;;;;;3.17;0.73;;;;;;;;;;4960238;28;20789;-62
2022/05/27 08:31:43;;;;;;;3.20;1.20;;;;;;;;;;4962177;28;20220;-62
2022/05/27 08:39:42;;;;;;;2.27;0.87;;;;;;;;;;4939533;28;20336;-62
2022/05/27 08:42:32;;;;;;;5.73;1.00;;;;;;;;;;4943435;28;20692;-62
2022/05/27 08:45:09;;;;;;;1.97;0.70;;;;;;;;;;4941046;28;20233;-62
2022/05/27 08:47:40;;;;;;;2.87;0.73;;;;;;;;;;4928510;28;20220;-62
2022/05/27 08:50:09;;;;;;;4.20;0.83;;;;;;;;;;4916849;28;20256;-63
2022/05/27 08:52:46;;;;;;;4.13;1.40;;;;;;;;;;4969642;28;20228;-62
2022/05/27 09:01:08;;;;;;;4.93;1.10;;;;;;;;;;4964837;28;20576;-62
2022/05/27 09:03:37;;;;;;;2.47;1.17;;;;;;;;;;4964385;28;20242;-61
2022/05/27 09:06:04;;;;;;;5.13;1.10;;;;;;;;;;4931231;28;20220;-62
2022/05/27 09:08:31;;;;;;;4.17;1.00;;;;;;;;;;4979811;28;20282;-62
2022/05/27 09:10:59;;;;;;;2.53;1.00;;;;;;;;;;4960414;28;20698;-62
2022/05/27 09:13:36;;;;;;;5.83;1.50;;;;;;;;;;4956747;28;20216;-63
2022/05/27 09:16:23;;;;;;;6.60;1.50;;;;;;;;;;4960688;28;20232;-62
2022/05/27 09:19:11;;;;;;;4.37;1.07;;;;;;;;;;4958830;28;20230;-62
2022/05/27 09:21:58;;;;;;;5.50;1.13;;;;;;;;;;4956663;28;20228;-62
2022/05/27 09:24:49;;;;;;;2.93;1.07;;;;;;;;;;4961731;28;20275;-62
2022/05/27 09:27:18;;;;;;;4.47;1.10;;;;;;;;;;4950664;28;20228;-62
2022/05/27 09:30:04;;;;;;;5.53;1.20;;;;;;;;;;4956906;28;21019;-61
2022/05/27 09:32:32;;;;;;;3.93;1.07;;;;;;;;;;4961538;28;20227;-62
2022/05/27 09:35:02;;;;;;;6.90;1.60;;;;;;;;;;4971832;28;20235;-61
2022/05/27 09:37:51;;;;;;;5.57;1.10;;;;;;;;;;4970482;28;20235;-61
2022/05/27 09:40:56;;;;;;;7.37;1.40;;;;;;;;;;4944572;28;20230;-62
2022/05/27 09:43:34;;;;;;;5.07;1.20;;;;;;;;;;4960550;28;20634;-62
2022/05/27 09:46:02;;;;;;;3.03;0.93;;;;;;;;;;4966930;28;20232;-62
2022/05/27 09:48:29;;;;;;;5.03;1.17;;;;;;;;;;4981425;28;20800;-61
2022/05/27 09:50:56;;;;;;;4.37;1.23;;;;;;;;;;4990800;28;20247;-62
2022/05/27 09:53:31;;;;;;;3.53;1.20;;;;;;;;;;4986116;28;20230;-63
2022/05/27 09:56:00;;;;;;;3.87;1.00;;;;;;;;;;4977691;28;20228;-62
2022/05/27 09:58:44;;;;;;;3.33;0.70;;;;;;;;;;4987780;28;20687;-61
2022/05/27 10:01:21;;;;;;;5.00;1.10;;;;;;;;;;4978196;28;20238;-62
2022/05/27 10:04:03;;;;;;;5.47;0.90;;;;;;;;;;4979799;28;20235;-62
2022/05/27 10:06:30;;;;;;;5.23;1.13;;;;;;;;;;4977776;28;20240;-61
2022/05/27 10:09:23;;;;;;;4.17;1.10;;;;;;;;;;4984397;28;22891;-62
2022/05/27 10:11:51;;;;;;;6.83;1.50;;;;;;;;;;5000463;28;20325;-63
2022/05/27 10:14:27;;;;;;;2.87;0.90;;;;;;;;;;4999796;28;24746;-64
2022/05/27 10:17:05;;;;;;;3.33;0.97;;;;;;;;;;5001589;28;30343;-62
2022/05/27 10:19:39;;;;;;;5.00;0.97;;;;;;;;;;5001839;28;20239;-63
2022/05/27 10:22:06;;;;;;;3.97;1.00;;;;;;;;;;5001754;28;20796;-62
2022/05/27 10:24:37;;;;;;;4.83;1.10;;;;;;;;;;5007073;28;21034;-63
2022/05/27 10:27:26;;;;;;;4.37;0.90;;;;;;;;;;5002550;28;20250;-63
2022/05/27 10:30:29;;;;;;;5.27;0.90;;;;;;;;;;5004418;28;21179;-63
2022/05/27 10:33:11;;;;;;;7.87;1.20;;;;;;;;;;5001256;28;20306;-63
2022/05/27 10:35:38;;;;;;;2.57;0.80;;;;;;;;;;5002928;28;20261;-64
2022/05/27 10:38:38;;;;;;;1.93;0.70;;;;;;;;;;4999868;28;20394;-63
2022/05/27 10:41:09;;;;;;;3.07;1.00;;;;;;;;;;4946779;28;20222;-62
2022/05/27 10:43:36;;;;;;;2.13;0.70;;;;;;;;;;4999869;28;22565;-63
2022/05/27 10:46:04;;;;;;;4.60;1.00;;;;;;;;;;5005829;28;20246;-63
2022/05/27 10:48:34;;;;;;;7.47;1.27;;;;;;;;;;5002965;28;20231;-63
2022/05/27 10:51:19;;;;;;;7.07;0.83;;;;;;;;;;5008395;28;27793;-63
2022/05/27 10:54:07;;;;;;;2.77;0.57;;;;;;;;;;5002474;28;20570;-62
2022/05/27 10:56:33;;;;;;;3.70;0.80;;;;;;;;;;5000686;28;20331;-63
2022/05/27 11:02:30;;;;;;;6.13;1.00;;;;;;;;;;4998030;28;20238;-63
2022/05/27 11:05:19;;;;;;;5.77;0.97;;;;;;;;;;4950677;28;20243;-63
2022/05/27 11:08:04;;;;;;;5.70;1.00;;;;;;;;;;4985581;28;20354;-62
2022/05/27 11:10:34;;;;;;;3.67;1.20;;;;;;;;;;4997795;28;20231;-62
2022/05/27 11:16:26;;;;;;;3.00;0.83;;;;;;;;;;4997266;28;20997;-62
2022/05/27 11:18:59;;;;;;;7.73;1.10;;;;;;;;;;4994638;28;24326;-62
2022/05/27 11:21:35;;;;;;;2.00;0.80;;;;;;;;;;5005882;28;20306;-62
2022/05/27 11:24:24;;;;;;;2.67;0.90;;;;;;;;;;4995599;28;20353;-63
2022/05/27 11:27:17;;;;;;;3.33;1.13;;;;;;;;;;5002348;28;22549;-62
2022/05/27 11:29:50;;;;;;;3.70;0.70;;;;;;;;;;4999236;28;20226;-63
2022/05/27 11:32:54;;;;;;;4.67;1.03;;;;;;;;;;4994546;28;20218;-63
2022/05/27 11:35:21;;;;;;;13.43;0.80;;;;;;;;;;5005114;28;20226;-62
2022/05/27 11:37:48;;;;;;;2.83;1.20;;;;;;;;;;5001569;28;20881;-63
2022/05/27 11:40:30;;;;;;;5.30;0.97;;;;;;;;;;5006623;28;20230;-62
2022/05/27 11:43:17;;;;;;;3.00;0.80;;;;;;;;;;5004077;28;20254;-63
2022/05/27 11:45:49;;;;;;;3.33;1.00;;;;;;;;;;5006255;28;20234;-63
2022/05/27 11:48:16;;;;;;;2.40;0.73;;;;;;;;;;4982701;28;21067;-63
2022/05/27 11:50:52;;;;;;;5.87;1.10;;;;;;;;;;5008091;28;20333;-62
2022/05/27 11:53:38;;;;;;;3.17;0.77;;;;;;;;;;5001721;28;20238;-64
2022/05/27 11:56:05;;;;;;;3.93;0.80;;;;;;;;;;5004844;28;20235;-62
2022/05/27 11:58:59;;;;;;;5.67;1.20;;;;;;;;;;4994330;28;20249;-63
2022/05/27 12:01:35;;;;;;;2.83;0.97;;;;;;;;;;5003786;28;20222;-63
2022/05/27 12:04:20;;;;;;;3.53;0.87;;;;;;;;;;4999111;28;20227;-63
2022/05/27 12:06:53;;;;;;;6.90;0.80;;;;;;;;;;4996929;28;20797;-63
2022/05/27 12:09:25;;;;;;;2.80;0.87;;;;;;;;;;5001669;28;20242;-63
2022/05/27 12:11:53;;;;;;;3.13;1.07;;;;;;;;;;4973455;28;20239;-63
2022/05/27 12:14:38;;;;;;;3.47;0.70;;;;;;;;;;4990402;28;20235;-63
2022/05/27 12:17:09;;;;;;;4.03;0.80;;;;;;;;;;4971098;28;30010;-62
2022/05/27 12:19:38;;;;;;;4.27;1.00;;;;;;;;;;4957814;28;20660;-62
2022/05/27 12:22:25;;;;;;;4.03;0.80;;;;;;;;;;4972604;28;20263;-65
2022/05/27 12:24:54;;;;;;;2.80;0.70;;;;;;;;;;4971864;28;20526;-63
2022/05/27 12:27:20;;;;;;;3.33;0.70;;;;;;;;;;4971161;28;20326;-62
2022/05/27 12:29:49;;;;;;;2.63;1.00;;;;;;;;;;4973350;28;20362;-63
2022/05/27 12:32:16;;;;;;;4.40;0.80;;;;;;;;;;4957506;28;20240;-62
2022/05/27 12:34:44;;;;;;;4.57;1.27;;;;;;;;;;4987804;28;20249;-62
2022/05/27 12:37:26;;;;;;;3.17;0.87;;;;;;;;;;4979748;28;20330;-62
2022/05/27 12:40:11;;;;;;;6.07;1.13;;;;;;;;;;4980560;28;20231;-62
2022/05/27 12:42:39;;;;;;;6.17;1.20;;;;;;;;;;4963389;28;20232;-62
2022/05/27 12:45:34;;;;;;;4.03;0.83;;;;;;;;;;4964579;28;20315;-63
2022/05/27 12:48:00;;;;;;;6.40;1.40;;;;;;;;;;4964216;28;21049;-62
2022/05/27 12:50:31;;;;;;;4.77;1.07;;;;;;;;;;4980399;28;24566;-62
2022/05/27 12:53:12;;;;;;;5.33;1.20;;;;;;;;;;4980017;28;20279;-63
2022/05/27 13:01:46;;;;;;;3.17;1.10;;;;;;;;;;4980904;28;20730;-62
2022/05/27 13:04:33;;;;;;;4.57;1.10;;;;;;;;;;4963614;28;20239;-62
2022/05/27 13:07:04;;;;;;;6.17;1.10;;;;;;;;;;4962846;28;20243;-63
2022/05/27 13:09:35;;;;;;;4.17;0.90;;;;;;;;;;4967279;28;20235;-63
2022/05/27 13:12:04;;;;;;;3.90;1.03;;;;;;;;;;4979498;28;20573;-61
2022/05/27 13:14:42;;;;;;;5.07;1.10;;;;;;;;;;4978292;28;20845;-62
2022/05/27 13:17:31;;;;;;;4.40;1.27;;;;;;;;;;4989780;28;26694;-62
2022/05/27 13:20:02;;;;;;;6.63;1.20;;;;;;;;;;4991418;28;20640;-61
2022/05/27 13:22:56;;;;;;;6.03;1.60;;;;;;;;;;4992090;28;20234;-62
2022/05/27 13:25:29;;;;;;;2.07;0.87;;;;;;;;;;4995928;28;21168;-62
2022/05/27 13:28:22;;;;;;;4.03;1.20;;;;;;;;;;5005503;28;20238;-62
2022/05/27 13:30:48;;;;;;;5.60;1.60;;;;;;;;;;4999839;28;20222;-65
2022/05/27 13:33:19;;;;;;;6.10;1.97;;;;;;;;;;4992963;28;20234;-62
2022/05/27 13:35:46;;;;;;;4.87;1.00;;;;;;;;;;4990111;28;39146;-62
2022/05/27 13:38:14;;;;;;;3.40;1.10;;;;;;;;;;4994204;28;20234;-61
2022/05/27 13:40:40;;;;;;;9.90;1.30;;;;;;;;;;4997433;28;20238;-62
2022/05/27 13:43:10;;;;;;;4.40;1.00;;;;;;;;;;4995183;28;20237;-62
2022/05/27 13:45:53;;;;;;;3.23;1.10;;;;;;;;;;4996721;28;20215;-61
2022/05/27 13:48:25;;;;;;;3.67;1.00;;;;;;;;;;5004146;28;20236;-61
2022/05/27 13:51:02;;;;;;;4.33;0.90;;;;;;;;;;5008978;28;39225;-62
2022/05/27 13:53:29;;;;;;;4.60;1.00;;;;;;;;;;5000391;28;20234;-62
2022/05/27 13:56:15;;;;;;;4.80;1.17;;;;;;;;;;4998040;28;20698;-61
2022/05/27 13:58:57;;;;;;;2.73;0.70;;;;;;;;;;4999526;28;222489;-62
2022/05/27 14:01:38;;;;;;;4.23;0.90;;;;;;;;;;5002785;28;20234;-64
2022/05/27 14:04:06;;;;;;;4.20;1.43;;;;;;;;;;5008441;28;20269;-62
2022/05/27 14:06:33;;;;;;;5.93;1.20;;;;;;;;;;5001929;28;20239;-61
2022/05/27 14:09:12;;;;;;;6.00;1.23;;;;;;;;;;4988651;28;216531;-62
2022/05/27 14:11:42;;;;;;;3.97;1.00;;;;;;;;;;4979760;28;20238;-62
2022/05/27 14:14:09;;;;;;;6.67;1.20;;;;;;;;;;4977438;28;20230;-61
2022/05/27 14:16:41;;;;;;;5.57;1.33;;;;;;;;;;4973854;28;20238;-62
2022/05/27 14:19:16;;;;;;;5.47;1.20;;;;;;;;;;4993943;28;20575;-62
2022/05/27 14:24:36;;;;;;;5.13;1.30;;;;;;;;;;4995519;28;20226;-62
2022/05/27 14:27:06;;;;;;;5.13;1.10;;;;;;;;;;4978486;28;20291;-61
2022/05/27 14:29:32;;;;;;;3.60;1.30;;;;;;;;;;4991930;28;20586;-63
2022/05/27 14:32:04;;;;;;;3.70;1.03;;;;;;;;;;4969675;28;20235;-61
2022/05/27 14:34:34;;;;;;;6.13;1.30;;;;;;;;;;4990769;28;20230;-62
2022/05/27 14:37:05;;;;;;;6.67;1.33;;;;;;;;;;4981778;28;20631;-61
2022/05/27 14:39:32;;;;;;;6.07;1.23;;;;;;;;;;4976440;28;20227;-62
2022/05/27 14:41:59;;;;;;;4.80;1.70;;;;;;;;;;4995315;28;20706;-62
2022/05/27 14:44:27;;;;;;;7.60;1.43;;;;;;;;;;4975573;28;20265;-62
2022/05/27 14:47:08;;;;;;;6.17;0.97;;;;;;;;;;4992320;28;20239;-66
2022/05/27 14:49:47;;;;;;;5.63;1.03;;;;;;;;;;4977654;28;21690;-62
2022/05/27 14:52:18;;;;;;;5.90;1.27;;;;;;;;;;4957439;28;20690;-62
2022/05/27 14:54:45;;;;;;;8.20;1.63;;;;;;;;;;4977115;28;20231;-63
2022/05/27 14:57:17;;;;;;;6.30;1.30;;;;;;;;;;4978783;28;20311;-61
2022/05/27 14:59:46;;;;;;;7.93;1.70;;;;;;;;;;4993167;28;20227;-62
2022/05/27 15:02:23;;;;;;;3.47;1.30;;;;;;;;;;4975353;28;20247;-62
2022/05/27 15:05:02;;;;;;;5.53;1.20;;;;;;;;;;4975743;28;20288;-62
2022/05/27 15:07:43;;;;;;;10.80;1.20;;;;;;;;;;4989566;28;20727;-62
2022/05/27 15:10:19;;;;;;;3.40;1.00;;;;;;;;;;5001576;28;20235;-62
2022/05/27 15:12:47;;;;;;;5.43;0.87;;;;;;;;;;5004849;28;20260;-62
2022/05/27 15:15:28;;;;;;;5.27;1.70;;;;;;;;;;5003514;28;20277;-62
2022/05/27 15:18:01;;;;;;;5.80;1.27;;;;;;;;;;5002955;28;20318;-62
2022/05/27 15:20:47;;;;;;;6.63;0.90;;;;;;;;;;5008475;28;20816;-61
2022/05/27 15:23:14;;;;;;;7.27;1.30;;;;;;;;;;5000253;28;20241;-62
2022/05/27 15:25:43;;;;;;;4.00;1.20;;;;;;;;;;4997864;28;20231;-61
2022/05/27 15:33:31;;;;;;;5.33;1.27;;;;;;;;;;4988636;28;20314;-61
2022/05/27 15:36:00;;;;;;;5.03;1.30;;;;;;;;;;5007480;28;20262;-62
2022/05/27 15:38:28;;;;;;;6.97;1.37;;;;;;;;;;5000041;28;20355;-62
2022/05/27 15:40:59;;;;;;;4.73;1.13;;;;;;;;;;5005734;28;20779;-62
2022/05/27 15:43:30;;;;;;;5.60;1.23;;;;;;;;;;4999313;28;20702;-62
2022/05/27 15:45:58;;;;;;;4.87;1.30;;;;;;;;;;5003514;28;20317;-61
2022/05/27 15:48:42;;;;;;;5.87;1.30;;;;;;;;;;5001058;28;20269;-61
2022/05/27 15:51:10;;;;;;;5.83;1.30;;;;;;;;;;5005119;28;20238;-63
2022/05/27 15:53:40;;;;;;;5.47;1.20;;;;;;;;;;4992944;28;20245;-63